Tiempo atmosférico en la estación meteorológica de Sevilla Aeropuerto, Sevilla (34 m.)



Fecha
DESCASC
Temp. máxima en grados centígrados (hora)
DESCASC
Temp. mínima en grados centígrados (hora)
DESCASC
Temp. media en grados centígrados
DESCASC
Racha de viento máxima en m/sg (hora)
DESCASC
Velocidad máxima media en intervalos de 10 minutos(hora)
DESCASC
Precipitaciones diarias en mm
DESCASC
Precipitaciones de 00:00 a 06:00 en mm
DESCASC
Precipitaciones de 06:00 a 12:00 en mm
DESCASC
Precipitaciones de 12:00 a 18:00 en mm
DESCASC
Precipitaciones de 18:00 a 24:00 en mm
DESCASC
13-10-2019 29.8 (18:20) 19.2 (06:40) 24.5 7.22 (00:10) 5 (00:10) 0 0 0 0 0
12-10-2019 30.8 (16:00) 20.3 (08:30) 25.5 11.67 (21:10) 8.61 (21:10) 0 0 0 0 0
10-10-2019 34 (17:20) 17.1 (00:00) 25.6 7.22 (22:30) 5.28 (22:30) 0 0 0 0 0
09-10-2019 32.7 (17:00) 17.3 (00:00) 25 6.67 (19:50) 5 (20:00) 0 0 0 0 0
08-10-2019 34.6 (15:40) 17.4 (00:00) 26 9.72 (19:40) 5.83 (20:50) 0 0 0 0 0
07-10-2019 35.5 (18:10) 14.4 (00:00) 24.9 7.78 (12:50) 3.61 (11:10) 0 0 0 0 0
06-10-2019 32 (16:30) 14.3 (00:00) 23.2 7.78 (19:50) 5.56 (19:50) 0 0 0 0 0
05-10-2019 30.5 (16:50) 15.2 (08:30) 22.8 8.33 (20:20) 5.83 (19:50) 0 0 0 0 0
04-10-2019 30.4 (17:20) 14.2 (00:00) 22.3 8.89 (15:50) 5.28 (20:50) 0 0 0 0 0
03-10-2019 30.2 (17:10) 13.9 (00:00) 22.1 10.83 (18:40) 7.78 (19:00) 0 0 0 0 0
02-10-2019 30 (17:20) 14 (00:00) 22 10.28 (20:00) 6.94 (19:20) 0 0 0 0 0
01-10-2019 33.1 (17:00) 15.6 (00:00) 24.3 11.39 (16:40) 8.06 (19:00) 0 0 0 0 0
30-09-2019 32.9 (17:50) 17.6 (00:00) 25.3 6.11 (00:10) 4.44 (00:20) 0 0 0 0 0
29-09-2019 33.3 (16:30) 16.3 (00:00) 24.8 7.78 (17:40) 5.28 (18:50) 0 0 0 0 0
28-09-2019 34.8 (17:00) 15.5 (00:00) 25.1 7.78 (11:10) 5 (20:20) 0 0 0 0 0
27-09-2019 33.5 (17:40) 15.5 (00:00) 24.5 9.17 (19:30) 6.67 (19:50) 0 0 0 0 0
26-09-2019 33.5 (18:30) 15.7 (00:00) 24.6 8.89 (11:50) 5.83 (20:20) -- 0 -- -- 0
25-09-2019 -- (--) -- (--) -- -- (--) -- (--) -- -- 0 0 0
24-09-2019 33.5 (17:30) 14.7 (00:00) 24.1 8.89 (20:20) 6.39 (20:20) 0 0 0 0 0
23-09-2019 30.3 (19:10) 14.8 (00:00) 22.5 8.89 (12:50) 4.17 (10:30) 0 0 0 0 0
22-09-2019 28.2 (17:30) 20.3 (00:00) 24.3 9.72 (07:00) 6.39 (19:40) 0.6 0 0.6 0 0
21-09-2019 26.4 (16:40) 19.4 (00:00) 22.9 9.17 (18:00) 6.67 (18:00) 0.3 0 0 0 0.3
20-09-2019 27.6 (17:40) 18.6 (00:00) 23.1 7.78 (16:40) 5.28 (16:40) 0 0 0 0 0
19-09-2019 -- (--) -- (--) -- -- (--) -- (--) -- 0 0 -- --
18-09-2019 30.7 (17:20) 18.7 (00:00) 24.7 8.33 (20:10) 5.83 (20:30) 0 0 0 0 0
17-09-2019 31.9 (17:00) 19.4 (00:00) 25.6 9.17 (19:50) 6.39 (19:50) 0 0 0 0 0
16-09-2019 32.2 (18:00) 20.1 (00:00) 26.2 7.22 (17:20) 5.28 (20:30) 0 0 0 0 0

Gráficas

Temp. máximas Temp. mínimas Temp. medias Precipitaciones Rachas de viento máximas Velocidades máximas media en intervalos de 10 minutos

Datos horarios

Fecha y hora oficial Temperatura (ºC) Velocidad del viento (km/h) Dirección del viento Racha (km/h) Dirección de racha Precipitación (mm) Presión (hPa) Tendencia (hPa) Humedad (%)
2019-10-15 23:00:00 15.8 8 Nordeste 11 Nordeste 0 1018.3 1.2 53
2019-10-15 22:00:00 16.7 4 Sur 11 Sur 0 1017.9 0.7 47
2019-10-15 21:00:00 18.4 8 Sur -- -- 0 1017.7 0.6 39
2019-10-15 20:00:00 20.3 4 Sur 5 Sur 0 1017.1 -0.3 36
2019-10-15 19:00:00 22 4 Sudeste 11 Sur 0 1017.2 -0.6 29
2019-10-15 18:00:00 22.1 4 Noroeste 13 Noroeste 0 1017.1 -1.4 30
2019-10-15 17:00:00 22 5 Norte 17 Norte 0 1017.4 -1.7 30
2019-10-15 16:00:00 21.9 5 Sudeste 15 Sudeste 0 1017.8 -1.7 31
2019-10-15 15:00:00 20.8 6 Sudeste 17 Este 0 1018.5 -1.5 32
2019-10-15 14:00:00 20 9 Este 18 Este 0 1019.1 -0.8 38
2019-10-15 13:00:00 18.9 8 Norte 18 Nordeste 0 1019.5 0.1 42
2019-10-15 12:00:00 17.4 10 Este 18 Norte 0 1020 1.1 51
2019-10-15 11:00:00 15.4 12 Nordeste 17 Nordeste 0 1019.9 1.3 61
2019-10-15 10:00:00 12.6 4 Norte 11 Nordeste 0 1019.4 1 74
2019-10-15 09:00:00 10.8 2 Nordeste 13 Norte 0 1018.9 0.6 80
2019-10-15 08:00:00 10.8 3 Noroeste 13 Norte 0 1018.6 0.5 84
2019-10-15 07:00:00 10.6 3 Nordeste 8 Nordeste 0 1018.4 0.2 91
2019-10-15 06:00:00 10.8 5 Este 8 Este 0 1018.3 0.2 89
2019-10-15 05:00:00 12.1 5 Noroeste -- -- 0 1018.1 0.3 86
2019-10-15 04:00:00 12.9 0 Calma 13 Noroeste 0 1018.2 0.6 84
2019-10-15 03:00:00 14.2 10 Noroeste 13 Noroeste 0 1018.1 0.8 81
2019-10-15 02:00:00 15.8 10 Noroeste 15 Noroeste 0 1017.8 1 76
2019-10-15 01:00:00 15.9 10 Oeste 11 Oeste 0 1017.6 1.5 77
2019-10-15 00:00:00 16.3 9 Oeste 15 Oeste 0 1017.3 1.8 75
2019-10-14 23:00:00 18.1 10 Noroeste 22 Noroeste 0 1016.8 2.1 68
2019-10-14 22:00:00 19.3 16 Noroeste 24 Noroeste 0 1016.1 2.5 62
2019-10-14 21:00:00 19.5 15 Oeste 30 Oeste 0 1015.5 2.6 72
2019-10-14 20:00:00 19 17 Oeste 55 Oeste 0 1014.7 2 75
2019-10-14 19:00:00 22.1 31 Oeste 48 Oeste 0 1013.6 1 53
2019-10-14 18:00:00 23.3 29 Sudoeste 42 Oeste 0 1012.9 0 44
2019-10-14 17:00:00 23.8 33 Sudoeste 48 Oeste 0 1012.7 -0.8 40
2019-10-14 16:00:00 24.2 26 Sudoeste 37 Oeste 0 1012.6 -1.1 44
2019-10-14 15:00:00 24.1 24 Sudoeste 33 Sudoeste 0 1012.9 -0.7 48
2019-10-14 14:00:00 22.3 20 Oeste 33 Oeste 0 1013.5 0.2 57
2019-10-14 13:00:00 21.4 18 Oeste 28 Oeste 0 1013.7 1.2 64
2019-10-14 12:00:00 20.8 19 Oeste 28 Oeste 0 1013.6 2.1 69
2019-10-14 11:00:00 20.1 17 Oeste 28 Oeste 0 1013.3 2.2 77
2019-10-14 10:00:00 18.6 14 Sudoeste 30 Sudoeste 0 1012.5 2.1 88
2019-10-14 09:00:00 17.5 17 Sudoeste 30 Sudoeste 0 1011.5 1 92
2019-10-14 08:00:00 18 22 Sudoeste 32 Sudoeste 1.7 1011.1 1 89
2019-10-14 07:00:00 20.2 18 Sudoeste 28 Sudoeste 0 1010.4 0.9 83
2019-10-14 06:00:00 20.1 17 Sudoeste 24 Sudoeste 0 1010.5 1.3 86
2019-10-14 05:00:00 20 14 Sudoeste 28 Oeste 0 1010.1 1 84
2019-10-14 04:00:00 19.4 18 Sudoeste 26 Oeste 0 1009.5 0 85
2019-10-14 03:00:00 20 18 Sudoeste 28 Sudoeste 0 1009.2 0.3 73
2019-10-14 02:00:00 21.9 11 Sur 30 Sudoeste 0 1009.1 0.3 65
2019-10-14 01:00:00 23 19 Sudoeste 28 Sudoeste 0 1009.5 1.3 60
2019-10-14 00:00:00 23.7 10 Sudoeste 13 Sudoeste 0 1008.9 0.5 55
2019-10-13 23:00:00 24.5 9 Sudoeste 15 Oeste 0 1008.8 0.7 50
2019-10-13 22:00:00 24.8 8 Sudoeste 13 Oeste 0 1008.2 -0.2 53
2019-10-13 21:00:00 26.2 -- -- -- -- 0 1008.4 -0.3 49
2019-10-13 20:00:00 27.8 8 Oeste 13 Oeste 0 1008.1 -1.3 44
2019-10-13 19:00:00 29.3 6 Sudoeste 13 Sudoeste 0 1008.4 -1.5 40
2019-10-13 18:00:00 29.5 5 Sudoeste 18 Oeste 0 1008.7 -1.8 39
2019-10-13 17:00:00 29.3 5 Sudoeste 21 Oeste 0 1009.4 -2.4 40
2019-10-13 16:00:00 28.7 10 Sudoeste 21 Oeste 0 1009.9 -2.8 43
2019-10-13 15:00:00 27.6 6 Nordeste 18 Sudeste 0 1010.5 -2.6 47
2019-10-13 14:00:00 26.3 5 Sur 18 Sur 0 1011.8 -1.6 54
2019-10-13 13:00:00 24.8 11 Sudeste 21 Sudeste 0 1012.7 -0.6 60
2019-10-13 12:00:00 23.9 6 Sur 15 Sur 0 1013.1 0.4 62
2019-10-13 11:00:00 21 6 Norte 18 Norte 0 1013.4 0.9 78
2019-10-13 10:00:00 19.8 7 Norte 15 Norte 0 1013.3 1.2 81
2019-10-13 09:00:00 19.3 7 Norte 11 Norte 0 1012.7 0.5 84
2019-10-13 08:00:00 19.3 6 Norte 13 Norte 0 1012.5 0.3 84
2019-10-13 07:00:00 19.2 8 Nordeste 18 Norte 0 1012.1 -0.4 85
2019-10-13 06:00:00 19.5 5 Norte 9 Noroeste 0 1012.2 -0.6 82
2019-10-13 05:00:00 19.6 5 Norte 9 Noroeste 0 1012.2 -0.8 82
2019-10-13 04:00:00 19.8 7 Noroeste 13 Sudoeste 0 1012.5 -0.5 81
2019-10-13 03:00:00 19.3 8 Sudoeste 13 Sudoeste 0 1012.8 -0.3 88
2019-10-13 02:00:00 19.9 8 Oeste 17 Oeste 0 1013 0.4 83
2019-10-13 01:00:00 20.3 14 Oeste 26 Oeste 0 1013 1 83
2019-10-13 00:00:00 20.9 17 Sudoeste 28 Oeste 0 1013.1 1.5 81
2019-10-12 23:00:00 21.2 22 Sudoeste 30 Oeste 0 1012.6 1.7 80
2019-10-12 22:00:00 21.5 21 Sudoeste 42 Sudoeste 0 1012 1.8 82
2019-10-12 21:00:00 22.3 30 Sudoeste 41 Sudoeste 0 1011.6 1.5 80
2019-10-12 20:00:00 25.2 23 Oeste 35 Oeste 0 1010.9 0.8 66
2019-10-12 19:00:00 27.7 18 Sudoeste 33 Sudoeste 0 1010.2 0 53
2019-10-12 18:00:00 29.8 21 Oeste 37 Sudoeste 0 1010.1 -0.7 45
2019-10-12 17:00:00 30.2 21 Sudoeste 37 Oeste 0 1010.1 -1.7 41
2019-10-12 16:00:00 30.7 19 Sudoeste 28 Oeste 0 1010.2 -1.9 41
2019-10-12 15:00:00 30 17 Sudoeste 26 Sudoeste 0 1010.8 -1.2 35
2019-10-12 14:00:00 29.2 15 Sudoeste 22 Sudoeste 0 1011.8 -0.3 36
2019-10-12 13:00:00 28.1 8 Sudoeste 22 Oeste 0 1012.1 0.5 39
2019-10-12 12:00:00 26.3 5 Norte 13 Norte 0 1012 0.7 45
2019-10-12 11:00:00 24.1 6 Este 13 Este 0 1012.1 1 52
2019-10-12 10:00:00 21.6 4 Nordeste 15 Nordeste 0 1011.6 0.5 58
2019-10-12 09:00:00 20.3 6 Oeste 13 Norte 0 1011.3 0.2 62
2019-10-12 08:00:00 20.6 5 Norte 9 Este 0 1011.1 -0.5 60
2019-10-12 07:00:00 21 5 Este 11 Nordeste 0 1011.1 -0.5 59
2019-10-12 06:00:00 21.6 8 Nordeste 15 Nordeste 0 1011.1 -1.4 59
2019-10-12 05:00:00 21.1 8 Este 13 Sudeste 0 1011.6 -1.4 70
2019-10-12 04:00:00 22.2 11 Nordeste 15 Nordeste 0 1011.6 -1.6 66
2019-10-12 03:00:00 22.2 4 Este 9 Sudeste 0 1012.5 -1.1 67
2019-10-12 02:00:00 22.6 4 Sudoeste 11 Sur 0 1013 -0.4 65
2019-10-12 01:00:00 23.8 6 Sur 11 Sur 0 1013.2 0.5 60
2019-10-12 00:00:00 24.5 4 Sudoeste 17 Oeste 0 1013.6 1 57
2019-10-11 23:00:00 25.4 8 Oeste 13 Oeste 0 1013.4 1.3 52
2019-10-11 22:00:00 25.7 6 Noroeste 13 Noroeste 0 1012.7 0.6 43
2019-10-11 21:00:00 26.5 9 Oeste 13 Noroeste 0 1012.6 0.4 38
2019-10-11 20:00:00 27.9 8 Noroeste 15 Noroeste 0 1012.1 -0.7 34
2019-10-11 19:00:00 29 4 Noroeste 13 Noroeste 0 1012.1 -1.2 30
2019-10-11 18:00:00 29.3 3 Sudeste 13 Noroeste 0 1012.2 -1.7 29
2019-10-11 17:00:00 29.5 8 Noroeste 17 Oeste 0 1012.8 -1.9 30
2019-10-11 16:00:00 29.3 6 Sudoeste 13 Oeste 0 1013.3 -1.7 31
2019-10-11 15:00:00 29.7 7 Sudoeste -- -- -- 1013.9 -1.5 31
2019-10-11 14:00:00 27.7 5 Sudoeste 21 Este 0 1014.7 -0.7 35
2019-10-11 13:00:00 26.7 8 Este 13 Sudeste 0 1015 0.2 40
2019-10-11 12:00:00 25.8 8 Sudeste 18 Este 0 1015.4 1.2 43
2019-10-11 11:00:00 23.9 13 Este 22 Este 0 1015.4 1.4 56
2019-10-11 10:00:00 21.2 10 Nordeste 18 Nordeste 0 1014.8 1 67
2019-10-11 09:00:00 20.1 14 Nordeste 22 Nordeste 0 1014.2 0.7 72
2019-10-11 08:00:00 19.5 10 Nordeste 22 Nordeste 0 1014 0.6 77
2019-10-11 07:00:00 19.2 7 Nordeste 17 Norte 0 1013.8 0.1 77
2019-10-11 06:00:00 19.3 11 Norte 17 Norte 0 1013.5 -0.3 75
2019-10-11 05:00:00 19.3 10 Nordeste 13 Nordeste 0 1013.4 -0.5 69
2019-10-11 04:00:00 20.6 9 Nordeste 11 Este 0 1013.7 -0.3 63
2019-10-11 03:00:00 20.5 4 Nordeste 11 Nordeste 0 1013.8 0.1 69
2019-10-11 02:00:00 21.3 8 Este 9 Este 0 1013.9 0.5 68
2019-10-11 01:00:00 22.3 5 Nordeste 13 Oeste 0 1014 1.3 63
2019-10-11 00:00:00 24.4 8 Oeste 15 Sudoeste 0 1013.7 1.9 55
2019-10-10 23:00:00 25.4 12 Sudoeste 26 Sudoeste 0 1013.4 2.1 54
2019-10-10 22:00:00 26.7 15 Sudoeste 22 Sudoeste 0 1012.7 1.4 49
2019-10-10 21:00:00 28.7 9 Oeste 15 Noroeste 0 1011.8 0.6 33
2019-10-10 20:00:00 30.6 9 Oeste 15 Oeste 0 1011.3 -0.2 30
2019-10-10 19:00:00 32.5 11 Oeste 17 Oeste 0 1011.3 -0.7 28
2019-10-10 18:00:00 33.5 6 Oeste 13 Oeste 0 1011.2 -1.3 27
2019-10-10 17:00:00 33 8 Sudoeste 13 Sudoeste 0 1011.5 -1.9 27
2019-10-10 16:00:00 31.7 5 Norte 22 Norte 0 1012 -1.9 30
2019-10-10 15:00:00 31.6 6 Sudeste 13 Sudeste 0 1012.5 -1.9 30
2019-10-10 14:00:00 30 4 Nordeste 17 Norte 0 1013.4 -0.9 33
2019-10-10 13:00:00 27.8 6 Norte 13 Nordeste 0 1013.9 0.2 38
2019-10-10 12:00:00 25.8 7 Nordeste 13 Nordeste 0 1014.4 1.3 44
2019-10-10 11:00:00 23.1 4 Norte 13 Nordeste 0 1014.3 1.5 55
2019-10-10 10:00:00 20 4 Norte 11 Norte 0 1013.7 1.3 67
2019-10-10 09:00:00 17.9 0 Calma 9 Norte 0 1013.1 0.9 72
2019-10-10 08:00:00 17.5 2 Nordeste 11 Norte 0 1012.8 0.9 75
2019-10-10 07:00:00 17.2 6 Sudeste 9 Sudeste 0 1012.4 0.2 74
2019-10-10 06:00:00 18.1 4 Sur 5 Sur 0 1012.2 0 73
2019-10-10 05:00:00 19.6 3 Sur -- -- 0 1011.9 -0.2 67
2019-10-10 04:00:00 19 8 Sur 9 Sur 0 1012.2 0.2 67
2019-10-10 03:00:00 19.9 6 Sur 11 Sur 0 1012.2 0.5 62
2019-10-10 02:00:00 21.4 4 Sudeste 18 Sur 0 1012.1 0.7 55
2019-10-10 01:00:00 22.8 13 Sur 17 Sur 0 1012 0.7 54
2019-10-10 00:00:00 24.7 13 Sudoeste 18 Sudoeste 0 1011.7 0.9 46
2019-10-09 23:00:00 25.6 14 Sudoeste 21 Sudoeste 0 1011.4 0.9 46
2019-10-09 22:00:00 27.1 12 Sudoeste 21 Sudoeste 0 1011.3 1.1 43
2019-10-09 21:00:00 28.1 15 Sudoeste 22 Sudoeste 0 1010.8 0.6 41
2019-10-09 20:00:00 30.1 18 Sudoeste 24 Sudoeste 0 1010.5 -0.1 37
2019-10-09 19:00:00 31.8 12 Sudoeste 21 Sudoeste 0 1010.2 -0.8 32
2019-10-09 18:00:00 32.6 12 Sudoeste 18 Sudoeste 0 1010.2 -1.4 29
2019-10-09 17:00:00 32.7 10 Sudoeste 18 Sudoeste 0 1010.6 -1.9 29
2019-10-09 16:00:00 31.6 5 Oeste 17 Sudoeste 0 1011 -2.3 32
2019-10-09 15:00:00 30.6 5 Sur 15 Noroeste 0 1011.6 -2 35
2019-10-09 14:00:00 29.2 5 Sudeste 13 Sudoeste 0 1012.5 -1 39
2019-10-09 13:00:00 27.2 6 Noroeste 13 Sur 0 1013.3 -0.2 46
2019-10-09 12:00:00 26 4 Oeste 9 Oeste 0 1013.6 0.8 50
2019-10-09 11:00:00 23 0 Calma 9 Nordeste 0 1013.5 1.1 61
2019-10-09 10:00:00 20.2 5 Nordeste 13 Norte 0 1013.5 1.2 69
2019-10-09 09:00:00 17.9 0 Calma 8 Sudeste 0 1012.8 0.8 75
2019-10-09 08:00:00 17.4 3 Sudeste 9 Sur 0 1012.4 0.7 78
2019-10-09 07:00:00 18.7 3 Sudoeste 8 Sudoeste 0 1012.3 0.5 73
2019-10-09 06:00:00 19.5 4 Sur 13 Sur 0 1012 -0.4 71
2019-10-09 05:00:00 20.1 4 Sur 11 Sur 0 1011.7 -0.7 69
2019-10-09 04:00:00 20.7 5 Sur 13 Sur 0 1011.8 -1.1 66
2019-10-09 03:00:00 22 7 Sur 11 Sur 0 1012.4 -0.7 64
2019-10-09 02:00:00 23.2 9 Oeste 13 Oeste 0 1012.4 -0.3 58
2019-10-09 01:00:00 24 9 Oeste 15 Oeste 0 1012.9 0.9 54
2019-10-09 00:00:00 24.7 9 Sudoeste 18 Oeste 0 1013.1 1.1 50
2019-10-08 23:00:00 25.8 12 Oeste 24 Sudoeste 0 1012.7 1.3 46
2019-10-08 22:00:00 27 15 Sudoeste 26 Sudoeste 0 1012 1 43
2019-10-08 21:00:00 28.2 19 Oeste 30 Oeste 0 1012 1.1 41
2019-10-08 20:00:00 30.5 18 Oeste 35 Oeste 0 1011.4 0.3 33
2019-10-08 19:00:00 33.1 13 Sudoeste 18 Oeste 0 1011 -0.6 21
2019-10-08 18:00:00 34.3 8 Sur 17 Sudoeste 0 1010.9 -1.3 20
2019-10-08 17:00:00 34.5 8 Oeste 17 Sur 0 1011.1 -2 19
2019-10-08 16:00:00 34.1 7 Sudeste 21 Este 0 1011.6 -2.1 19
2019-10-08 15:00:00 32.9 9 Oeste 15 Oeste 0 1012.2 -2.1 21
2019-10-08 14:00:00 32.3 5 Este 11 Sudoeste 0 1013.1 -1.2 21
2019-10-08 13:00:00 29.3 5 Sur 9 Sudoeste 0 1013.7 -0.2 27
2019-10-08 12:00:00 27 4 Nordeste 11 Este 0 1014.3 1 31
2019-10-08 11:00:00 24.2 5 Nordeste 11 Este 0 1014.3 1.4 35
2019-10-08 10:00:00 20.1 5 Norte 22 Nordeste 0 1013.9 1.6 48
2019-10-08 09:00:00 17.5 8 Norte 21 Norte 0 1013.3 1.4 55
2019-10-08 08:00:00 17.4 8 Noroeste 11 Oeste 0 1012.9 0.9 55
2019-10-08 07:00:00 17.9 3 Oeste 17 Norte 0 1012.3 0.1 54
2019-10-08 06:00:00 18.2 9 Nordeste 11 Nordeste 0 1011.9 -0.4 55
2019-10-08 05:00:00 18.4 4 Noroeste 11 Nordeste 0 1012 -0.5 54
2019-10-08 04:00:00 18.9 3 Oeste 13 Nordeste 0 1012.2 -0.4 54
2019-10-08 03:00:00 19.4 6 Este 13 Sur 0 1012.3 -0.2 55
2019-10-08 02:00:00 20.8 12 Sur 17 Sur 0 1012.5 0 50
2019-10-08 01:00:00 20.6 9 Sudeste 11 Sudeste 0 1012.6 0.4 48
2019-10-08 00:00:00 22.3 3 Este 9 Oeste 0 1012.5 0.8 43
2019-10-07 23:00:00 25.5 9 Oeste 18 Noroeste 0 1012.5 1 33
2019-10-07 22:00:00 26.9 8 Oeste 13 Sur 0 1012.2 0.8 27
2019-10-07 21:00:00 27.8 4 Oeste -- -- 0 1011.7 0.3 29
2019-10-07 20:00:00 32.7 3 Sur 5 Sudoeste 0 1011.5 -0.4 22
2019-10-07 19:00:00 35.3 0 Calma 9 Sudeste 0 1011.4 -0.8 14
2019-10-07 18:00:00 34.6 2 Sudeste 18 Nordeste 0 1011.4 -1.6 15
2019-10-07 17:00:00 34.1 9 Nordeste 18 Este 0 1011.9 -1.9 16
2019-10-07 16:00:00 33.9 6 Este 13 Este 0 1012.2 -2.2 18
2019-10-07 15:00:00 32.3 5 Este 15 Este 0 1013 -1.7 21
2019-10-07 14:00:00 30.6 6 Este 18 Nordeste 0 1013.8 -1.1 22
2019-10-07 13:00:00 28.3 10 Nordeste 28 Nordeste 0 1014.4 0.2 27
2019-10-07 12:00:00 25.7 10 Nordeste 26 Este 0 1014.7 0.7 32
2019-10-07 11:00:00 22.9 10 Este 24 Nordeste 0 1014.9 1.2 43
2019-10-07 10:00:00 18.4 8 Nordeste 13 Nordeste 0 1014.2 0.8 59
2019-10-07 09:00:00 15 7 Norte 18 Nordeste 0 1014 0.7 75
2019-10-07 08:00:00 15.2 9 Norte 17 Nordeste 0 1013.7 0.1 78
2019-10-07 07:00:00 14.6 5 Este 9 Sudeste 0 1013.4 -0.5 83
2019-10-07 06:00:00 14.9 4 Este 9 Sudeste 0 1013.3 -1.4 79
2019-10-07 05:00:00 16.1 6 Nordeste 9 Nordeste 0 1013.6 -1 77
2019-10-07 04:00:00 16.2 2 Sur -- -- 0 1013.9 -1.1 74
2019-10-07 03:00:00 17.7 2 Noroeste 13 Sur 0 1014.7 0 73
2019-10-07 02:00:00 17.9 12 Sur 15 Sur 0 1014.6 -0.2 71
2019-10-07 01:00:00 18.6 6 Sur 17 Sur 0 1015 0.7 58
2019-10-07 00:00:00 20.6 5 Sur 13 Sur 0 1014.7 0.8 48
2019-10-06 23:00:00 23.2 10 Sudoeste 15 Sur 0 1014.8 1.5 40
2019-10-06 22:00:00 24.8 10 Sudoeste 15 Sudoeste 0 1014.3 1.2 38
2019-10-06 21:00:00 26.9 10 Sudoeste 22 Sudoeste 0 1013.9 0.5 37
2019-10-06 20:00:00 28.7 18 Sudoeste 28 Sudoeste 0 1013.3 -0.3 36
2019-10-06 19:00:00 31.1 10 Sudoeste 17 Sudoeste 0 1013.1 -1.1 22
2019-10-06 18:00:00 31.3 9 Sudoeste 17 Sudoeste 0 1013.4 -1.3 21
2019-10-06 17:00:00 31.3 10 Sudoeste 18 Noroeste 0 1013.6 -2 24
2019-10-06 16:00:00 31.1 9 Sur 15 Sudoeste 0 1014.2 -1.9 25
2019-10-06 15:00:00 29.6 6 Norte 13 Noroeste 0 1014.7 -1.9 31
2019-10-06 14:00:00 28.1 4 Sudeste 13 Sudeste 0 1015.6 -0.9 37
2019-10-06 13:00:00 25.8 7 Sur 15 Sur 0 1016.1 0.3 46
2019-10-06 12:00:00 22.6 3 Noroeste 11 Norte 0 1016.6 1.3 60
2019-10-06 11:00:00 20 4 Norte 11 Norte 0 1016.5 1.7 72
2019-10-06 10:00:00 17.6 0 Calma 5 Sur 0 1015.8 1.9 79
2019-10-06 09:00:00 14.8 3 Noroeste 8 Noroeste 0 1015.3 1.1 88
2019-10-06 08:00:00 14.7 4 Este 11 Norte 0 1014.8 1 91
2019-10-06 07:00:00 14.7 6 Este 8 Este 0 1013.9 -0.3 90
2019-10-06 06:00:00 15.3 2 Sudeste 9 Sudeste 0 1014.2 -0.2 91
2019-10-06 05:00:00 15.4 5 Sudeste 9 Sudeste 0 1013.8 -0.1 89
2019-10-06 04:00:00 16.8 3 Sudeste 8 Sur 0 1014.2 0.2 88
2019-10-06 03:00:00 17.8 7 Sur 13 Sur 0 1014.4 0.7 86
2019-10-06 02:00:00 17.8 9 Sur 17 Sur 0 1013.9 0.4 83
2019-10-06 01:00:00 18.4 7 Sur 17 Sur 0 1014 1 79
2019-10-06 00:00:00 19.9 12 Sur 18 Sur 0 1013.7 1.4 67
2019-10-05 23:00:00 21.6 13 Sudoeste 18 Sudoeste 0 1013.5 1.7 58
2019-10-05 22:00:00 22.5 12 Sudoeste 24 Sudoeste 0 1013 1.5 56
2019-10-05 21:00:00 24.5 19 Sudoeste 30 Sudoeste 0 1012.3 0.8 48
2019-10-05 20:00:00 27.1 18 Sudoeste 28 Sudoeste 0 1011.8 0.1 41
2019-10-05 19:00:00 29.7 13 Sudoeste 18 Sudoeste 0 1011.5 -0.4 37
2019-10-05 18:00:00 29.9 12 Sudoeste 22 Sudoeste 0 1011.5 -1 38
2019-10-05 17:00:00 29.9 14 Sudoeste 21 Sudoeste 0 1011.7 -1.6 38
2019-10-05 16:00:00 29.9 6 Noroeste 17 Oeste 0 1011.9 -1.8 34
2019-10-05 15:00:00 28.3 8 Sur 18 Sur 0 1012.5 -1.3 43
2019-10-05 14:00:00 26.3 4 Norte 13 Noroeste 0 1013.3 -0.5 51
2019-10-05 13:00:00 25.3 5 Oeste 13 Noroeste 0 1013.7 0.4 55
2019-10-05 12:00:00 23.4 3 Este 9 Este 0 1013.8 1 64
2019-10-05 11:00:00 21 3 Oeste 9 Noroeste 0 1013.8 1.4 75
2019-10-05 10:00:00 17.9 3 Oeste 9 Noroeste 0 1013.3 1 82
2019-10-05 09:00:00 15.7 0 Calma 5 Este 0 1012.8 0.6 89
2019-10-05 08:00:00 15.5 2 Este 9 Nordeste 0 1012.4 0.3 92
2019-10-05 07:00:00 15.8 4 Este 13 Nordeste 0 1012.3 0 92
2019-10-05 06:00:00 16.2 4 Nordeste 9 Sudeste 0 1012.2 -0.4 90
2019-10-05 05:00:00 16.5 5 Este 8 Este 0 1012.1 -0.4 89
2019-10-05 04:00:00 17.2 2 Sur 11 Sur 0 1012.3 -0.5 90
2019-10-05 03:00:00 18.2 9 Sur 15 Sur 0 1012.6 -0.1 88
2019-10-05 02:00:00 18.6 11 Sur 21 Sur 0 1012.5 -0.3 84
2019-10-05 01:00:00 19.6 13 Sur 21 Sur 0 1012.8 0.3 80
2019-10-05 00:00:00 20.5 9 Sur 18 Sudoeste 0 1012.7 0.6 76
2019-10-04 23:00:00 21.8 13 Sudoeste 22 Sudoeste 0 1012.8 1.1 70
2019-10-04 22:00:00 23.6 14 Sudoeste 22 Sudoeste 0 1012.5 1.1 61
2019-10-04 21:00:00 25.6 17 Sudoeste 26 Sudoeste 0 1012.1 0.6 55
2019-10-04 20:00:00 27.7 17 Sudoeste 28 Sudoeste 0 1011.7 -0.2 46
2019-10-04 19:00:00 29.7 13 Sudoeste 21 Sudoeste 0 1011.4 -1.1 36
2019-10-04 18:00:00 30.2 11 Sudoeste 21 Sudoeste 0 1011.5 -1.9 32
2019-10-04 17:00:00 30 12 Oeste 21 Oeste 0 1011.9 -2.3 34
2019-10-04 16:00:00 29.3 13 Oeste 32 Sudoeste 0 1012.5 -2.2 32
2019-10-04 15:00:00 28 7 Sudoeste 18 Oeste 0 1013.4 -1.8 42
2019-10-04 14:00:00 26.5 7 Oeste 18 Norte 0 1014.2 -1.1 48
2019-10-04 13:00:00 24.9 4 Noroeste 13 Norte 0 1014.7 -0.7 56
2019-10-04 12:00:00 23.4 4 Este 18 Nordeste 0 1015.2 0.2 61
2019-10-04 11:00:00 20.5 8 Este 15 Este 0 1015.3 0.6 73
2019-10-04 10:00:00 17.6 6 Este 11 Este 0 1015.4 0.8 81
2019-10-04 09:00:00 14.8 5 Nordeste 11 Este 0 1015 0.5 89
2019-10-04 08:00:00 14.4 5 Nordeste 18 Norte 0 1014.7 0 90
2019-10-04 07:00:00 15.2 5 Norte 17 Norte 0 1014.6 -0.1 89
2019-10-04 06:00:00 -- 8 Este 9 Este 0 1014.5 -0.8 --
2019-10-04 05:00:00 15.5 0 Calma 8 Nordeste 0 1014.7 -0.7 90
2019-10-04 04:00:00 15.7 -- -- -- -- 0 1014.7 -0.8 87
2019-10-04 03:00:00 16.7 3 Sur 11 Sur 0 1015.3 -0.2 86
2019-10-04 02:00:00 17.9 8 Sur 13 Sur 0 1015.4 -0.2 82
2019-10-04 01:00:00 18.3 8 Sur 15 Sur 0 1015.5 0.4 82
2019-10-04 00:00:00 19.4 9 Sur 17 Sudoeste 0 1015.5 0.9 82
2019-10-03 23:00:00 19.8 10 Sur 26 Sudoeste 0 1015.6 1.3 81
2019-10-03 22:00:00 20.6 17 Sudoeste 32 Sudoeste 0 1015.1 1.2 74
2019-10-03 21:00:00 22.3 26 Sudoeste 33 Sudoeste 0 1014.6 0.6 61
2019-10-03 20:00:00 24.4 26 Sudoeste 35 Sudoeste 0 1014.3 0.1 50
2019-10-03 19:00:00 26.7 28 Sudoeste 39 Sudoeste 0 1013.9 -0.6 37
2019-10-03 18:00:00 28.7 21 Sudoeste 30 Sudoeste 0 1014 -1.2 28
2019-10-03 17:00:00 29.9 15 Oeste 28 Sudoeste 0 1014.2 -2 25
2019-10-03 16:00:00 28.8 13 Sudoeste 22 Sudoeste 0 1014.5 -2.3 28
2019-10-03 15:00:00 27.8 13 Sudoeste 26 Sudoeste 0 1015.2 -2 31
2019-10-03 14:00:00 26.2 12 Sudoeste 22 Sudoeste 0 1016.2 -0.9 38
2019-10-03 13:00:00 24.3 9 Sudoeste 18 Sudoeste 0 1016.8 0.1 51
2019-10-03 12:00:00 21.8 11 Sur 22 Sur 0 1017.2 1.1 66
2019-10-03 11:00:00 20.3 7 Sur 15 Sudoeste 0 1017.1 1.5 74
2019-10-03 10:00:00 18.2 2 Este 8 Este 0 1016.7 1.3 83
2019-10-03 09:00:00 14.5 0 Calma 9 Sur 0 1016.1 0.9 91
2019-10-03 08:00:00 14.4 0 Calma -- -- 0 1015.6 0.7 90
2019-10-03 07:00:00 15.4 2 Sudeste 8 Norte 0 1015.4 0.4 86
2019-10-03 06:00:00 15.6 7 Sur 11 Sur 0 1015.2 0 89
2019-10-03 05:00:00 16.9 6 Sur 9 Sur 0 1014.9 -0.4 85
2019-10-03 04:00:00 17.5 6 Sur 15 Sur 0 1015 -0.3 82
2019-10-03 03:00:00 17.8 12 Sur 15 Sur 0 1015.2 0 80
2019-10-03 02:00:00 18 10 Sur 15 Sur 0 1015.3 0.1 80
2019-10-03 01:00:00 18.7 12 Sur 21 Sur 0 1015.3 0.7 79
2019-10-03 00:00:00 19.6 11 Sur 21 Sur 0 1015.2 1.5 77
2019-10-02 23:00:00 20.1 10 Sur 26 Sudoeste 0 1015.2 1.7 73
2019-10-02 22:00:00 20.6 17 Sudoeste 33 Sudoeste 0 1014.6 1.6 69
2019-10-02 21:00:00 22 18 Sur 35 Sudoeste 0 1013.7 1.1 62
2019-10-02 20:00:00 23.8 24 Sudoeste 37 Sudoeste 0 1013.5 0.4 54
2019-10-02 19:00:00 27.3 21 Sudoeste 32 Sudoeste 0 1013 -0.6 36
2019-10-02 18:00:00 29.8 16 Sudoeste 24 Sur 0 1012.6 -1.6 23
2019-10-02 17:00:00 29.7 15 Sudoeste 22 Oeste 0 1013.1 -1.6 18
2019-10-02 16:00:00 29.2 12 Sudoeste 24 Sudoeste 0 1013.6 -1.7 18
2019-10-02 15:00:00 27.7 11 Sudoeste 21 Sudoeste 0 1014.2 -1.4 26
2019-10-02 14:00:00 25.5 10 Sudoeste 21 Oeste 0 1014.7 -0.8 35
2019-10-02 13:00:00 24.6 11 Oeste 21 Sudoeste 0 1015.3 0.3 42
2019-10-02 12:00:00 22.4 6 Noroeste 11 Noroeste 0 1015.6 0.8 46
2019-10-02 11:00:00 20.5 5 Norte 11 Norte 0 1015.5 1.2 54
2019-10-02 10:00:00 18.3 6 Nordeste 15 Nordeste 0 1015 1 61
2019-10-02 09:00:00 15.8 6 Nordeste 13 Norte 0 1014.8 1 70
2019-10-02 08:00:00 14.1 4 Sudeste 9 Sudeste 0 1014.3 0.8 78
2019-10-02 07:00:00 16.4 0 Calma 11 Nordeste 0 1014 0.1 70
2019-10-02 06:00:00 17.4 9 Nordeste 15 Norte 0 1013.8 -0.6 69
2019-10-02 05:00:00 18.8 8 Noroeste 15 Noroeste 0 1013.5 -0.6 60
2019-10-02 04:00:00 20.1 10 Oeste 18 Oeste 0 1013.9 -0.1 57
2019-10-02 03:00:00 21.1 14 Noroeste 18 Oeste 0 1014.4 0.7 52
2019-10-02 02:00:00 22.3 14 Noroeste 22 Noroeste 0 1014.1 0.6 48
2019-10-02 01:00:00 23.1 14 Noroeste 22 Noroeste 0 1014 1 46
2019-10-02 00:00:00 24 13 Noroeste 18 Oeste 0 1013.7 1.6 43
2019-10-01 23:00:00 24.9 10 Noroeste 18 Noroeste 0 1013.5 2.1 41
2019-10-01 22:00:00 26.1 14 Noroeste 22 Noroeste 0 1013 2 39
2019-10-01 21:00:00 27.4 16 Noroeste 26 Norte 0 1012.1 1.5 35
2019-10-01 20:00:00 29.5 19 Noroeste 33 Norte 0 1011.4 0.7 29
2019-10-01 19:00:00 31.2 29 Norte 39 Norte 0 1011 0.2 25
2019-10-01 18:00:00 32.2 23 Noroeste 39 Oeste 0 1010.6 -0.8 23
2019-10-01 17:00:00 32.7 27 Oeste 41 Oeste 0 1010.7 -1.5 22
2019-10-01 16:00:00 32.3 15 Noroeste 28 Noroeste 0 1010.8 -1.9 22
2019-10-01 15:00:00 31.3 12 Sudoeste 24 Sudoeste 0 1011.4 -1.7 23
2019-10-01 14:00:00 29.7 13 Oeste 22 Oeste 0 1012.2 -0.8 28
2019-10-01 13:00:00 27.3 13 Oeste 21 Oeste 0 1012.7 0.5 36
2019-10-01 12:00:00 24.8 5 Oeste 11 Oeste 0 1013.1 1.5 41
2019-10-01 11:00:00 21.7 8 Noroeste 13 Oeste 0 1013 1.7 49
2019-10-01 10:00:00 19.1 4 Oeste 15 Noroeste 0 1012.2 1.1 62
2019-10-01 09:00:00 16.2 5 Sudeste 9 Sudeste 0 1011.6 0.9 80
2019-10-01 08:00:00 16.8 4 Sudeste 9 Norte 0 1011.3 0.6 75
2019-10-01 07:00:00 17.2 8 Oeste 13 Oeste 0 1011.1 0.1 76
2019-10-01 06:00:00 17.1 5 Sur 8 Sur 0 1010.7 -0.7 72
2019-10-01 05:00:00 18.1 2 Sur 21 Sur 0 1010.7 -0.8 66
2019-10-01 04:00:00 18.9 13 Sur 22 Sur 0 1011 -0.2 63
2019-10-01 03:00:00 19.7 17 Sur 22 Sur 0 1011.4 0.1 58
2019-10-01 02:00:00 21.2 10 Sur 17 Sur 0 1011.5 0.2 50
2019-10-01 01:00:00 20.8 8 Sur 11 Sur 0 1011.2 0.2 53
2019-10-01 00:00:00 23 5 Sudoeste 9 Sudoeste 0 1011.3 0.7 45
2019-09-30 23:00:00 24.8 4 Sur 17 Sudoeste 0 1011.3 0.7 42
2019-09-30 22:00:00 26.5 12 Sudoeste 17 Sudoeste 0 1011 0.2 38
2019-09-30 21:00:00 28.8 11 Sur 15 Sudoeste 0 1010.6 -0.4 28
2019-09-30 20:00:00 30.8 6 Sur 13 Sudoeste 0 1010.6 -0.9 25
2019-09-30 19:00:00 32.4 9 Sur 15 Oeste 0 1010.8 -1.3 23
2019-09-30 18:00:00 32.8 9 Sudoeste 17 Sudoeste 0 1011 -1.5 24
2019-09-30 17:00:00 32.2 10 Oeste 22 Sudoeste 0 1011.5 -2.1 28
2019-09-30 16:00:00 31.5 10 Sudoeste 18 Sudoeste 0 1012.1 -2.2 30
2019-09-30 15:00:00 29.3 3 Oeste 15 Oeste 0 1012.5 -2.3 38
2019-09-30 14:00:00 28 7 Oeste 13 Oeste 0 1013.6 -1.2 45
2019-09-30 13:00:00 26.2 4 Este 9 Este 0 1014.3 -0.5 54
2019-09-30 12:00:00 22.8 5 Norte 13 Norte 0 1014.8 0.4 70
2019-09-30 11:00:00 19.7 4 Nordeste 13 Nordeste 0 1014.8 0.9 86
2019-09-30 10:00:00 18.6 3 Norte 11 Norte 0 1014.8 1.2 90
2019-09-30 09:00:00 18 2 Sudoeste 8 Oeste 0 1014.4 0.8 94
2019-09-30 08:00:00 17.9 5 Sudoeste 9 Sur 0 1013.9 0.1 92
2019-09-30 07:00:00 18.4 5 Sur 11 Sur 0 1013.6 -0.3 92
2019-09-30 06:00:00 18.5 9 Oeste 15 Oeste 0 1013.6 -0.6 96
2019-09-30 05:00:00 18.8 9 Sudoeste 15 Sudoeste 0 1013.8 -0.3 96
2019-09-30 04:00:00 18.5 7 Sudoeste 21 Sudoeste 0 1013.9 -0.2 98
2019-09-30 03:00:00 19.4 10 Sudoeste 18 Sudoeste 0 1014.2 0.1 91
2019-09-30 02:00:00 20.2 13 Sudoeste 18 Sudoeste 0 1014.1 0.2 89
2019-09-30 01:00:00 20.6 12 Sudoeste 22 Sur 0 1014.1 0.6 84
2019-09-30 00:00:00 21.6 14 Sudoeste 22 Sur 0 1014.1 1.3 74
2019-09-29 23:00:00 22.9 16 Sur 22 Sudoeste 0 1013.9 1.4 66
2019-09-29 22:00:00 24.8 14 Sudoeste 21 Sudoeste 0 1013.5 1.1 55
2019-09-29 21:00:00 26.6 15 Sudoeste 24 Sudoeste 0 1012.8 0.2 51
2019-09-29 20:00:00 29.2 14 Sudoeste 24 Sudoeste 0 1012.5 -0.4 42
2019-09-29 19:00:00 31 18 Sudoeste 28 Sudoeste 0 1012.4 -0.9 36
2019-09-29 18:00:00 32.7 12 Sudoeste 28 Sudoeste 0 1012.6 -1.4 24
2019-09-29 17:00:00 33.1 10 Sudoeste 24 Oeste 0 1012.9 -2.1 22
2019-09-29 16:00:00 32.7 12 Oeste 21 Sudoeste 0 1013.3 -2.1 23
2019-09-29 15:00:00 31.4 9 Sudoeste 15 Sudoeste 0 1014 -1.6 25
2019-09-29 14:00:00 29.4 6 Noroeste 15 Oeste 0 1015 -0.5 28
2019-09-29 13:00:00 27.5 5 Norte 15 Norte 0 1015.4 0.5 33
2019-09-29 12:00:00 25.5 4 Oeste 9 Sudoeste 0 1015.6 1.2 38
2019-09-29 11:00:00 22.7 4 Oeste 11 Noroeste 0 1015.5 1.6 46
2019-09-29 10:00:00 19.5 4 Norte 15 Norte 0 1014.9 1.3 54
2019-09-29 09:00:00 17.4 8 Nordeste 13 Nordeste 0 1014.4 1 62
2019-09-29 08:00:00 16.6 6 Norte 9 Noroeste 0 1013.9 0 67
2019-09-29 07:00:00 17.3 5 Nordeste 13 Este 0 1013.6 -0.3 65
2019-09-29 06:00:00 17.3 5 Este 8 Norte 0 1013.4 -0.8 72
2019-09-29 05:00:00 17.1 5 Nordeste 11 Este 0 1013.9 0 75
2019-09-29 04:00:00 18.6 4 Sudeste 5 Sudeste 0 1013.9 0 71
2019-09-29 03:00:00 20.1 2 Noroeste 15 Sur 0 1014.2 0.3 66
2019-09-29 02:00:00 21.1 10 Sur 24 Sur 0 1013.9 0.2 64
2019-09-29 01:00:00 21.6 14 Sur 22 Sur 0 1013.9 0.6 57
2019-09-29 00:00:00 22.5 9 Sur -- -- 0 1013.9 1.2 47
2019-09-28 23:00:00 24.5 4 Sudeste 11 Sudoeste 0 1013.7 1.2 36
2019-09-28 22:00:00 27.2 8 Sudoeste 17 Sudoeste 0 1013.3 0.8 31
2019-09-28 21:00:00 29.4 13 Sudoeste 24 Sudoeste 0 1012.7 0.2 28
2019-09-28 20:00:00 32.2 11 Sudoeste 21 Sudoeste 0 1012.5 -0.2 19
2019-09-28 19:00:00 33.5 13 Sudoeste 21 Sudoeste 0 1012.5 -0.6 17
2019-09-28 18:00:00 34.5 10 Oeste 21 Oeste 0 1012.5 -1.4 18
2019-09-28 17:00:00 34.7 6 Sudoeste 18 Oeste 0 1012.7 -2.1 19
2019-09-28 16:00:00 33.4 8 Nordeste 21 Nordeste 0 1013.1 -2.4 21
2019-09-28 15:00:00 32.8 6 Oeste 15 Oeste 0 1013.9 -2 23
2019-09-28 14:00:00 31 5 Nordeste 24 Nordeste 0 1014.8 -1 27
2019-09-28 13:00:00 29 9 Nordeste 18 Nordeste 0 1015.5 -0.2 31
2019-09-28 12:00:00 26.8 8 Nordeste 28 Nordeste 0 1015.9 0.8 36
2019-09-28 11:00:00 23 10 Nordeste 26 Nordeste 0 1015.8 1.2 50
2019-09-28 10:00:00 19.1 4 Norte 17 Norte 0 1015.7 1.5 64
2019-09-28 09:00:00 16.4 4 Norte 11 Norte 0 1015.1 1 72
2019-09-28 08:00:00 15.6 3 Nordeste 9 Este 0 1014.6 0.6 79
2019-09-28 07:00:00 16.1 5 Este -- -- 0 1014.2 -0.1 78
2019-09-28 06:00:00 16.8 2 Nordeste 8 Nordeste 0 1014.1 -0.4 76
2019-09-28 05:00:00 17.9 4 Nordeste 8 Nordeste 0 1014 -0.8 75
2019-09-28 04:00:00 17.9 4 Este 11 Sudeste 0 1014.3 -0.6 76
2019-09-28 03:00:00 18.5 3 Sudeste 13 Sur 0 1014.5 -0.2 73
2019-09-28 02:00:00 19.5 7 Sur 13 Sur 0 1014.8 0.4 72
2019-09-28 01:00:00 21.3 7 Sur 13 Sur 0 1014.9 0.8 58
2019-09-28 00:00:00 22.8 9 Sur 17 Sur 0 1014.7 1.4 52
2019-09-27 23:00:00 23.7 6 Sur 18 Sudoeste 0 1014.4 1.5 51
2019-09-27 22:00:00 25.2 14 Sudoeste 28 Sudoeste 0 1014.1 1.4 47
2019-09-27 21:00:00 27.2 17 Sudoeste 32 Sudoeste 0 1013.3 0.7 39
2019-09-27 20:00:00 29.2 23 Sudoeste 33 Sudoeste 0 1012.9 -0.2 33
2019-09-27 19:00:00 31.5 22 Sudoeste 32 Sudoeste 0 1012.7 -0.9 30
2019-09-27 18:00:00 33.4 8 Sur 22 Oeste 0 1012.6 -1.7 22
2019-09-27 17:00:00 33 11 Sudoeste 22 Oeste 0 1013.1 -2.1 23
2019-09-27 16:00:00 32.6 9 Oeste 17 Oeste 0 1013.6 -2 24
2019-09-27 15:00:00 31.1 9 Sudoeste 17 Sudoeste 0 1014.3 -1.6 27
2019-09-27 14:00:00 29.6 6 Oeste 17 Sudoeste 0 1015.2 -0.8 31
2019-09-27 13:00:00 27.4 6 Oeste 13 Oeste 0 1015.6 -0.1 37
2019-09-27 12:00:00 24.8 6 Noroeste 9 Noroeste 0 1015.9 0.5 46
2019-09-27 11:00:00 22.8 5 Nordeste 11 Este 0 1016 1.1 53
2019-09-27 10:00:00 19.3 4 Nordeste 9 Nordeste 0 1015.7 1 65
2019-09-27 09:00:00 16.4 6 Nordeste 8 Nordeste 0 1015.4 0.9 77
2019-09-27 08:00:00 15.8 4 Este 8 Este 0 1014.9 0.4 82
2019-09-27 07:00:00 16 5 Este 13 Sudeste 0 1014.7 0 81
2019-09-27 06:00:00 16 9 Sudeste 11 Sudeste 0 1014.5 -0.2 79
2019-09-27 05:00:00 17.6 3 Sur 5 Sudoeste 0 1014.5 -0.1 75
2019-09-27 04:00:00 17.6 4 Sur 8 Sur 0 1014.7 0.1 73
2019-09-27 03:00:00 19.3 0 Calma 21 Sur 0 1014.7 0.3 68
2019-09-27 02:00:00 19.8 15 Sur 22 Sur 0 1014.6 0.3 67
2019-09-27 01:00:00 21.2 16 Sur 21 Sur 0 1014.6 0.9 55
2019-09-27 00:00:00 22.5 7 Sur 18 Oeste 0 1014.4 1.3 45
2019-09-26 23:00:00 25.2 10 Oeste 17 Sudoeste 0 1014.3 1.6 34
2019-09-26 22:00:00 27.1 12 Sudoeste 22 Sudoeste 0 1013.7 1.2 31
2019-09-26 21:00:00 28.2 17 Sudoeste 28 Sudoeste 0 1013.1 0.5 31
2019-09-26 20:00:00 31.1 13 Sudoeste 21 Sudoeste 0 1012.7 -0.3 24
2019-09-26 19:00:00 33.2 8 Sudoeste 17 Sudoeste 0 1012.5 -0.9 19
2019-09-26 18:00:00 33.2 9 Sudoeste 18 Oeste 0 1012.6 -1.3 19
2019-09-26 17:00:00 33.1 10 Oeste 21 Oeste 0 1013 -1.6 19
2019-09-26 16:00:00 32.5 8 Sur 18 Sur 0 1013.4 -1.9 21
2019-09-26 15:00:00 31.7 4 Sudeste 17 Nordeste 0 1013.9 -1.8 22
2019-09-26 14:00:00 30.6 4 Nordeste 15 Norte 0 1014.6 -0.8 25
2019-09-26 13:00:00 28.4 6 Nordeste 18 Norte -- 1015.3 0.2 29
2019-09-26 12:00:00 25.9 9 Nordeste 32 Este -- 1015.7 1 35
2019-09-26 11:00:00 23.5 12 Nordeste 26 Nordeste -- 1015.4 1.3 44
2019-09-26 10:00:00 20.4 8 Nordeste 17 Nordeste 0 1015.1 1.4 56
2019-09-26 09:00:00 17.1 2 Norte 8 Norte 0 1014.7 1 65
2019-09-26 08:00:00 16.4 4 Nordeste 15 Sur 0 1014.1 0.5 69
2019-09-26 07:00:00 16.1 4 Este 18 Este 0 1013.7 0.2 69
2019-09-26 06:00:00 15.8 5 Este 9 Sudeste 0 1013.7 0.2 71
2019-09-26 05:00:00 16.2 4 Este 8 Este 0 1013.6 0 78
2019-09-26 04:00:00 17.1 2 Este 5 Nordeste 0 1013.5 -0.1 76
2019-09-26 03:00:00 17.3 4 Sur 9 Sur 0 1013.5 0 77
2019-09-26 02:00:00 18.6 0 Calma 9 Sur 0 1013.6 0.2 71
2019-09-26 01:00:00 18.9 9 Sur 11 Sur 0 1013.6 0.6 69
2019-09-26 00:00:00 21.3 5 Sur 11 Sur 0 1013.5 1.1 61
2019-09-25 23:00:00 22.5 5 Sur 13 Sudoeste 0 1013.4 1.4 57
2019-09-25 22:00:00 24 5 Sudoeste 22 Sudoeste 0 1013 1.2 52
2019-09-25 21:00:00 26.1 12 Sudoeste 28 Sudoeste 0 1012.4 0.5 43
2019-09-25 20:00:00 28.6 21 Sudoeste 28 Sudoeste 0 1012 -0.4 32
2019-09-25 19:00:00 31.6 10 Sudoeste 24 Sudoeste 0 1011.8 -1.2 22
2019-09-25 18:00:00 31.6 10 Sudoeste 22 Oeste 0 1011.9 -1.9 21
2019-09-25 17:00:00 31.2 9 Oeste 18 Oeste 0 1012.4 -2.1 23
2019-09-25 16:00:00 30.1 9 Noroeste 17 Noroeste 0 1013 -2.1 25
2019-09-25 15:00:00 29.1 9 Oeste 22 Noroeste 0 1013.8 -1.8 25
2019-09-25 14:00:00 27.4 10 Norte 24 Norte 0 1014.5 -1.1 32
2019-09-25 13:00:00 25.9 9 Norte 24 Norte 0 1015.1 -0.2 39
2019-09-25 12:00:00 24 15 Norte 26 Norte 0 1015.6 0.8 47
2019-09-25 11:00:00 22.4 17 Nordeste 28 Norte 0 1015.6 1.2 54
2019-09-25 10:00:00 21.1 19 Norte 30 Norte 0 1015.3 1.2 60
2019-09-25 09:00:00 19.3 9 Norte 30 Norte 0 1014.8 0.7 68
2019-09-25 08:00:00 20.2 13 Norte 32 Norte 0 1014.4 0.4 65
2019-09-25 07:00:00 21 13 Norte 26 Nordeste 0 1014.1 -- 66
2019-09-25 06:00:00 21.4 13 Norte 18 Norte 0 1014.1 -0.2 72
2019-09-25 05:00:00 21.1 5 Nordeste -- -- -- 1014 -0.3 71
2019-09-25 04:00:00 -- -- -- -- -- -- -- -- --
2019-09-25 03:00:00 22.8 8 Este 18 Noroeste 0 1014.3 0 65
2019-09-25 02:00:00 24 13 Noroeste 17 Noroeste 0 1014.3 0.3 63
2019-09-25 01:00:00 24.5 11 Noroeste 15 Noroeste 0 1014.4 0.8 55
2019-09-25 00:00:00 25.9 11 Noroeste 22 Oeste 0 1014.3 1.1 50
2019-09-24 23:00:00 26.3 15 Oeste 21 Noroeste 0 1014 1.2 44
2019-09-24 22:00:00 26.9 13 Oeste 30 Sudoeste 0 1013.6 0.9 39
2019-09-24 21:00:00 27.8 17 Sudoeste 32 Sudoeste 0 1013.2 0.4 39
2019-09-24 20:00:00 30.8 18 Sudoeste 28 Sudoeste 0 1012.8 -0.7 28
2019-09-24 19:00:00 33.3 13 Sudoeste 24 Sudoeste 0 1012.7 -1.6 19
2019-09-24 18:00:00 33.4 11 Sudoeste 22 Oeste 0 1012.8 -2.1 19
2019-09-24 17:00:00 33 12 Oeste 21 Oeste 0 1013.5 -2.4 20
2019-09-24 16:00:00 32.5 11 Oeste 24 Oeste 0 1014.3 -2.5 21
2019-09-24 15:00:00 31.3 4 Noroeste 11 Noroeste 0 1014.9 -2.5 23
2019-09-24 14:00:00 30.1 5 Norte 13 Norte 0 1015.9 -1.7 26
2019-09-24 13:00:00 28 6 Este 13 Norte 0 1016.8 -0.2 30
2019-09-24 12:00:00 25.7 6 Este 18 Nordeste 0 1017.4 0.9 36
2019-09-24 11:00:00 22.9 9 Nordeste 18 Nordeste 0 1017.6 1.7 50
2019-09-24 10:00:00 18.9 6 Norte 17 Nordeste 0 1017 1.3 64
2019-09-24 09:00:00 16.4 5 Nordeste 17 Norte 0 1016.5 1 71
2019-09-24 08:00:00 16 3 Norte 13 Norte 0 1015.9 0.2 73
2019-09-24 07:00:00 14.8 5 Este 8 Sudeste 0 1015.7 0.1 80
2019-09-24 06:00:00 15.8 5 Sudeste 9 Sur 0 1015.5 -0.2 79
2019-09-24 05:00:00 16.9 4 Sur 13 Sur 0 1015.7 -0.1 76
2019-09-24 04:00:00 17.9 7 Sur 15 Sur 0 1015.6 -0.2 71
2019-09-24 03:00:00 18.2 7 Sur 9 Sur 0 1015.7 -0.2 66
2019-09-24 02:00:00 18.5 3 Este 5 Este 0 1015.8 0.1 64
2019-09-24 01:00:00 20.1 0 Calma 5 Norte 0 1015.8 0.3 58
2019-09-24 00:00:00 23.2 6 Noroeste 15 Noroeste 0 1015.9 1 46
2019-09-23 23:00:00 24.3 6 Noroeste 13 Sudoeste 0 1015.7 1.1 37
2019-09-23 22:00:00 26.1 12 Sudoeste 15 Sudoeste 0 1015.5 0.9 32
2019-09-23 21:00:00 26.6 6 Sur 8 Sur 0 1014.9 0.3 33
2019-09-23 20:00:00 29.5 3 Norte 15 Norte 0 1014.6 -0.5 27
2019-09-23 19:00:00 30.1 4 Norte 22 Norte 0 1014.6 -1 26
2019-09-23 18:00:00 29.9 9 Noroeste 30 Norte 0 1014.6 -1.4 27
2019-09-23 17:00:00 29.4 8 Nordeste 26 Norte 0 1015.1 -1.4 28
2019-09-23 16:00:00 29 7 Nordeste 28 Norte 0 1015.6 -1.3 26
2019-09-23 15:00:00 27.9 14 Norte 24 Nordeste 0 1016 -1.4 31
2019-09-23 14:00:00 27 9 Norte 21 Este 0 1016.5 -1.1 34
2019-09-23 13:00:00 26 12 Nordeste 32 Norte 0 1016.9 -0.5 38
2019-09-23 12:00:00 24.1 9 Nordeste 30 Nordeste 0 1017.4 0.5 45
2019-09-23 11:00:00 21.5 10 Nordeste 26 Nordeste 0 1017.6 1.5 55
2019-09-23 10:00:00 19.4 12 Nordeste 18 Nordeste 0 1017.4 1.6 63
2019-09-23 09:00:00 15.9 3 Nordeste 9 Este 0 1016.9 1.7 77
2019-09-23 08:00:00 15 3 Nordeste 17 Nordeste 0 1016.1 1 81
2019-09-23 07:00:00 16.5 6 Norte 17 Nordeste 0 1015.8 0.9 75
2019-09-23 06:00:00 16 3 Noroeste 9 Norte 0 1015.2 0 76
2019-09-23 05:00:00 17 8 Norte 9 Norte 0 1015.1 -0.2 72
2019-09-23 04:00:00 17.7 3 Sudeste 13 Noroeste 0 1014.9 -0.2 72
2019-09-23 03:00:00 18.2 2 Norte 9 Oeste 0 1015.2 0.2 70
2019-09-23 02:00:00 19.5 -- -- -- -- 0 1015.3 0.5 66
2019-09-23 01:00:00 20.9 5 Oeste 13 Noroeste 0 1015.1 0.8 56
2019-09-23 00:00:00 21.4 8 Oeste 15 Oeste 0 1015 1.7 52
2019-09-22 23:00:00 22.5 10 Oeste 18 Noroeste 0 1014.8 2.1 47
2019-09-22 22:00:00 23.6 13 Noroeste 24 Noroeste 0 1014.3 2.1 44
2019-09-22 21:00:00 24.9 18 Noroeste 30 Oeste 0 1013.3 1.3 39
2019-09-22 20:00:00 26.4 18 Oeste 30 Oeste 0 1012.7 0.5 37
2019-09-22 19:00:00 27.4 10 Noroeste 24 Noroeste 0 1012.2 0.1 34
2019-09-22 18:00:00 27.8 13 Noroeste 26 Oeste 0 1012 -0.6 31
2019-09-22 17:00:00 27.9 14 Noroeste 30 Noroeste 0 1012.2 -0.4 30
2019-09-22 16:00:00 27.4 8 Oeste 24 Noroeste 0 1012.1 -0.5 32
2019-09-22 15:00:00 26.6 9 Oeste 28 Oeste 0 1012.6 -0.1 35
2019-09-22 14:00:00 25.7 11 Oeste 22 Noroeste 0 1012.6 0.3 47
2019-09-22 13:00:00 24.3 10 Oeste 21 Oeste 0 1012.6 0.7 59
2019-09-22 12:00:00 23 10 Oeste 21 Noroeste 0 1012.7 1.5 70
2019-09-22 11:00:00 21.4 13 Oeste 24 Sudoeste 0 1012.3 1.8 85
2019-09-22 10:00:00 21.2 14 Sudoeste 18 Sudoeste 0 1011.9 1.7 91
2019-09-22 09:00:00 20.5 11 Oeste 18 Oeste 0 1011.2 1.4 95
2019-09-22 08:00:00 20.3 14 Sur 28 Sudoeste 0.5 1010.5 0.4 96
2019-09-22 07:00:00 20.8 14 Sur 35 Sudoeste 0.1 1010.2 -0.3 91
2019-09-22 06:00:00 20.7 15 Sur 28 Sur 0 1009.8 -1 88
2019-09-22 05:00:00 20.9 15 Sur 22 Sur 0 1010.1 -0.7 88
2019-09-22 04:00:00 21.1 14 Sur 24 Sur 0 1010.5 -0.5 88
2019-09-22 03:00:00 21 11 Sur -- -- -- 1010.8 -0.3 89
2019-09-22 02:00:00 21.1 8 Sur 17 Sudoeste 0 1010.8 -0.2 88
2019-09-22 01:00:00 21.1 10 Sudoeste 17 Sudoeste 0 1011 0.1 89
2019-09-22 00:00:00 21.2 9 Sur 22 Sudoeste 0.3 1011.1 0.9 90
2019-09-21 23:00:00 21.7 14 Sur 21 Sur 0 1011 1.2 85
2019-09-21 22:00:00 22 10 Sudoeste 24 Sudoeste 0 1010.9 1.2 81
2019-09-21 21:00:00 22.1 16 Sudoeste 30 Sudoeste 0 1010.2 0.3 80
2019-09-21 20:00:00 22.6 20 Sudoeste 32 Sudoeste 0 1009.8 0 75
2019-09-21 19:00:00 24.1 19 Sudoeste 32 Sudoeste 0 1009.7 -0.5 67
2019-09-21 18:00:00 24.9 24 Sudoeste 33 Oeste 0 1009.9 -0.4 62
2019-09-21 17:00:00 25.7 19 Sudoeste 30 Sudoeste 0 1009.8 -1.1 57
2019-09-21 16:00:00 25.2 16 Sudoeste 28 Oeste 0 1010.2 -1.3 58
2019-09-21 15:00:00 24.5 15 Sudoeste 22 Sudoeste 0 1010.3 -1.4 59
2019-09-21 14:00:00 24.3 13 Sudoeste 22 Sudoeste 0 1010.9 -0.4 63
2019-09-21 13:00:00 24.4 10 Sudoeste 21 Sudoeste 0 1011.5 0.7 60
2019-09-21 12:00:00 22.7 10 Sudoeste 21 Oeste 0 1011.7 1.3 68
2019-09-21 11:00:00 22.3 8 Sudoeste 13 Sudoeste 0 1011.3 1.1 72
2019-09-21 10:00:00 20.5 4 Sur 9 Sur 0 1010.8 0.9 81
2019-09-21 09:00:00 19.5 2 Sur 8 Este 0 1010.4 0.5 86
2019-09-21 08:00:00 19.6 3 Oeste 11 Sudoeste 0 1010.2 0 85
2019-09-21 07:00:00 19.6 4 Sur 9 Sur 0 1009.9 -0.6 85
2019-09-21 06:00:00 19.8 5 Sur 9 Sur 0 1009.9 -0.6 84
2019-09-21 05:00:00 20 5 Sudoeste 9 Sudoeste 0 1010.2 -0.5 83
2019-09-21 04:00:00 20.1 8 Sudoeste 11 Sudoeste 0 1010.5 -0.6 82
2019-09-21 03:00:00 19.9 6 Sur -- -- -- 1010.5 -0.7 84
2019-09-21 02:00:00 19.9 9 Sur 13 Sur 0 1010.7 -0.2 84
2019-09-21 01:00:00 20.5 8 Sur 13 Sur 0 1011.1 0.6 84
2019-09-21 00:00:00 21.7 10 Sudoeste 18 Oeste 0 1011.2 1.6 75
2019-09-20 23:00:00 22.6 12 Oeste 24 Sudoeste 0 1010.9 1.2 66
2019-09-20 22:00:00 23.6 13 Sudoeste 22 Oeste 0 1010.5 0.8 62
2019-09-20 21:00:00 24.2 15 Sudoeste 24 Sudoeste 0 1009.6 -0.2 65
2019-09-20 20:00:00 25.4 14 Sudoeste 22 Sudoeste 0 1009.7 -0.2 60
2019-09-20 19:00:00 26.3 14 Sudoeste 22 Oeste 0 1009.7 -0.6 55
2019-09-20 18:00:00 27.1 15 Oeste 26 Oeste 0 1009.8 -0.9 52
2019-09-20 17:00:00 26.9 12 Oeste 28 Oeste 0 1009.9 -1.2 54
2019-09-20 16:00:00 26.3 13 Sudoeste 24 Oeste 0 1010.3 -1.2 54
2019-09-20 15:00:00 26.1 13 Oeste 18 Oeste 0 1010.7 -1.3 55
2019-09-20 14:00:00 25.6 10 Oeste 15 Oeste 0 1011.1 -0.8 57
2019-09-20 13:00:00 25 6 Sudoeste 15 Sur 0 1011.5 -0.2 60
2019-09-20 12:00:00 23.1 9 Sudoeste 15 Sudoeste 0 1012 0.9 68
2019-09-20 11:00:00 22.1 4 Nordeste 11 Nordeste 0 1011.9 0.9 73
2019-09-20 10:00:00 20.2 8 Este 17 Nordeste 0 1011.7 1 81
2019-09-20 09:00:00 19 4 Nordeste 13 Norte 0 1011.1 0.2 83
2019-09-20 08:00:00 19.1 2 Norte 8 Noroeste 0 1011 0 84
2019-09-20 07:00:00 18.7 2 Sudeste 9 Este 0 1010.7 -0.5 84
2019-09-20 06:00:00 18.8 5 Sudeste -- -- 0 1010.9 -0.6 84
2019-09-20 05:00:00 19.5 4 Sudeste 9 Sudoeste 0 1011 -0.6 83
2019-09-20 04:00:00 19.8 6 Sudoeste 15 Sur 0 1011.2 -0.5 82
2019-09-20 03:00:00 19.9 12 Sur -- -- -- 1011.5 -0.3 79
2019-09-20 02:00:00 20.8 8 Sur 17 Sudoeste 0 1011.6 -0.1 72
2019-09-20 01:00:00 21.5 12 Sudoeste 17 Sudoeste 0 1011.7 0.7 69
2019-09-20 00:00:00 22.1 12 Sudoeste 18 Sudoeste 0 1011.8 1.3 65
2019-09-19 23:00:00 23.1 15 Sudoeste 22 Sudoeste 0 1011.7 1.4 63
2019-09-19 22:00:00 24.3 14 Sudoeste 22 Sudoeste 0 1011 0.7 56
2019-09-19 21:00:00 26 15 Sudoeste 26 Sudoeste 0 1010.5 -- 43
2019-09-19 20:00:00 28.3 12 Sudoeste 21 Oeste 0 1010.3 -- 37
2019-09-19 19:00:00 29.9 14 Sudoeste -- -- -- 1010.3 -- 30
2019-09-19 18:00:00 -- -- -- -- -- -- -- -- --
2019-09-19 17:00:00 -- -- -- -- -- -- -- -- --
2019-09-19 16:00:00 -- -- -- -- -- -- -- -- --
2019-09-19 15:00:00 -- -- -- -- -- -- -- -- --
2019-09-19 14:00:00 -- -- -- -- -- -- -- -- --
2019-09-19 13:00:00 25.4 8 Oeste 13 Oeste 0 1013.3 -0.1 57
2019-09-19 12:00:00 23.6 6 Este 13 Oeste 0 1013.7 0.7 66
2019-09-19 11:00:00 21.5 2 Norte 9 Sur 0 1013.7 0.9 75
2019-09-19 10:00:00 20.3 3 Nordeste 9 Nordeste 0 1013.4 0.8 81
2019-09-19 09:00:00 19.1 4 Este 9 Este 0 1013 0.5 84
2019-09-19 08:00:00 18.8 5 Este 9 Sudeste 0 1012.8 0.3 86
2019-09-19 07:00:00 17.9 4 Este 8 Este 0 1012.6 0 89
2019-09-19 06:00:00 17.9 4 Sur 5 Sur 0 1012.5 -0.4 88
2019-09-19 05:00:00 18.6 0 Calma 15 Sudoeste 0 1012.5 -0.5 85
2019-09-19 04:00:00 18.8 12 Sur 21 Sur 0 1012.6 -0.5 85
2019-09-19 03:00:00 18.6 14 Sur 18 Sur 0 1012.9 0 86
2019-09-19 02:00:00 19.5 6 Sudoeste 17 Sur 0 1013 0.1 84
2019-09-19 01:00:00 19.9 10 Sur 17 Sudoeste 0 1013.1 0.8 81
2019-09-19 00:00:00 20.6 12 Sudoeste 21 Sudoeste 0 1012.9 1.1 76
2019-09-18 23:00:00 21.4 15 Sudoeste 24 Sudoeste 0 1012.9 1.6 71
2019-09-18 22:00:00 23 17 Sudoeste 24 Sudoeste 0 1012.3 1.3 65
2019-09-18 21:00:00 24.7 17 Sudoeste 30 Sudoeste 0 1011.8 0.8 57
2019-09-18 20:00:00 27.4 21 Sudoeste 26 Sudoeste 0 1011.3 0 42
2019-09-18 19:00:00 29 13 Sudoeste 22 Sur 0 1011 -0.7 35
2019-09-18 18:00:00 30.3 11 Sudoeste 21 Sudoeste 0 1011 -1.4 33
2019-09-18 17:00:00 30.2 9 Sudoeste 24 Sudoeste 0 1011.3 -1.7 34
2019-09-18 16:00:00 29.5 11 Sudoeste 24 Sudoeste 0 1011.7 -1.6 42
2019-09-18 15:00:00 28.3 6 Sudoeste 21 Sudoeste 0 1012.4 -1.1 50
2019-09-18 14:00:00 27.1 11 Sudoeste 21 Sur 0 1013 -0.4 55
2019-09-18 13:00:00 25.8 10 Sudoeste 21 Sudoeste 0 1013.3 0.3 60
2019-09-18 12:00:00 24.5 12 Sudoeste 18 Sudoeste 0 1013.5 1 65
2019-09-18 11:00:00 23 6 Sudoeste 13 Oeste 0 1013.4 1.6 72
2019-09-18 10:00:00 21.3 7 Oeste 11 Oeste 0 1013 1.5 80
2019-09-18 09:00:00 19.8 3 Sudoeste 9 Sur 0 1012.5 1.1 84
2019-09-18 08:00:00 19 7 Sur 8 Sur 0 1011.8 0.4 87
2019-09-18 07:00:00 19.9 3 Este 8 Nordeste 0 1011.5 0.2 85
2019-09-18 06:00:00 19.8 3 Este 8 Sur 0 1011.4 -0.3 86
2019-09-18 05:00:00 19.9 5 Sur 15 Sur 0 1011.4 -0.6 85
2019-09-18 04:00:00 20.1 10 Sur 17 Sur 0 1011.3 -0.5 84
2019-09-18 03:00:00 20.5 11 Sur 17 Sur 0 1011.7 0 82
2019-09-18 02:00:00 21 12 Sur 18 Sudoeste 0 1012 0.8 80
2019-09-18 01:00:00 22 14 Sudoeste 21 Sudoeste 0 1011.8 1.4 80
2019-09-18 00:00:00 23.1 13 Sudoeste 18 Sudoeste 0 1011.7 2.1 76
2019-09-17 23:00:00 23.9 14 Sudoeste 21 Sudoeste 0 1011.2 1.9 73
2019-09-17 22:00:00 25.5 13 Sudoeste 18 Sudoeste 0 1010.4 1.1 65
2019-09-17 21:00:00 26.9 15 Sudoeste 30 Sudoeste 0 1009.6 -0.1 59